Time;durP1;ratioP1;P1;durP2;ratioP2;P2;SDS_P1;SDS_P2;PMS_P1;PMS_P2;Temp;Humidity;BMP_temperature;BMP_pressure;BME280_temperature;BME280_humidity;BME280_pressure;Samples;Min_cycle;Max_cycle;Signal;HPM_P1;HPM_P2
2022/06/30 00:02:02;;;;;;;8.60;5.97;;;;;;;;;;5035453;28;20091;-78
2022/06/30 00:04:28;;;;;;;6.30;5.13;;;;;;;;;;5035033;28;20079;-78
2022/06/30 00:06:54;;;;;;;9.30;5.80;;;;;;;;;;5033860;28;20025;-77
2022/06/30 00:09:20;;;;;;;8.15;5.60;;;;;;;;;;5034930;28;20033;-78
2022/06/30 00:11:46;;;;;;;8.48;5.78;;;;;;;;;;5034964;28;20083;-78
2022/06/30 00:14:13;;;;;;;9.80;5.80;;;;;;;;;;5035004;28;20112;-71
2022/06/30 00:16:39;;;;;;;9.93;5.25;;;;;;;;;;5034993;28;20021;-79
2022/06/30 00:19:05;;;;;;;6.43;5.10;;;;;;;;;;5034959;28;20107;-78
2022/06/30 00:21:31;;;;;;;7.00;5.07;;;;;;;;;;5035284;28;20029;-77
2022/06/30 00:23:57;;;;;;;5.53;4.80;;;;;;;;;;5034795;28;20033;-78
2022/06/30 00:26:23;;;;;;;9.05;5.68;;;;;;;;;;5034698;28;20551;-78
2022/06/30 00:28:49;;;;;;;6.55;4.88;;;;;;;;;;5034563;28;20369;-78
2022/06/30 00:31:16;;;;;;;5.75;4.63;;;;;;;;;;5034594;28;20037;-78
2022/06/30 00:33:42;;;;;;;7.63;5.07;;;;;;;;;;5034599;28;20036;-77
2022/06/30 00:36:08;;;;;;;7.40;4.97;;;;;;;;;;5034666;28;20100;-78
2022/06/30 00:38:34;;;;;;;6.47;5.28;;;;;;;;;;5034550;28;20033;-78
2022/06/30 00:41:00;;;;;;;8.07;5.32;;;;;;;;;;5034464;28;20096;-76
2022/06/30 00:43:26;;;;;;;9.45;5.50;;;;;;;;;;5034247;28;20025;-76
2022/06/30 00:45:52;;;;;;;7.07;5.45;;;;;;;;;;5034365;28;20037;-76
2022/06/30 00:48:19;;;;;;;6.82;5.00;;;;;;;;;;5034244;28;20148;-76
2022/06/30 00:50:45;;;;;;;7.45;5.20;;;;;;;;;;5034423;28;20383;-76
2022/06/30 00:53:12;;;;;;;8.02;5.32;;;;;;;;;;5034369;28;20029;-76
2022/06/30 00:55:38;;;;;;;6.40;4.90;;;;;;;;;;5034262;28;20099;-77
2022/06/30 00:58:05;;;;;;;7.05;4.72;;;;;;;;;;5034139;28;20022;-77
2022/06/30 01:00:34;;;;;;;9.32;5.38;;;;;;;;;;5034310;28;20461;-76
2022/06/30 01:03:00;;;;;;;7.22;5.13;;;;;;;;;;5034213;28;20033;-78
2022/06/30 01:05:27;;;;;;;6.10;4.63;;;;;;;;;;5033685;28;20081;-75
2022/06/30 01:07:54;;;;;;;10.63;5.15;;;;;;;;;;5033865;28;20033;-77
2022/06/30 01:13:05;;;;;;;7.70;5.55;;;;;;;;;;5034212;28;20042;-78
2022/06/30 01:15:31;;;;;;;7.47;4.50;;;;;;;;;;5033823;28;20475;-78
2022/06/30 01:17:57;;;;;;;7.45;5.45;;;;;;;;;;5033343;28;20028;-78
2022/06/30 01:20:27;;;;;;;8.32;5.10;;;;;;;;;;5033967;28;20439;-77
2022/06/30 01:22:53;;;;;;;8.70;5.70;;;;;;;;;;5033708;28;20101;-78
2022/06/30 01:25:19;;;;;;;7.88;4.82;;;;;;;;;;5033681;28;20030;-77
2022/06/30 01:27:46;;;;;;;6.13;4.78;;;;;;;;;;5033551;28;20032;-77
2022/06/30 01:30:12;;;;;;;5.95;5.20;;;;;;;;;;5033658;28;20055;-75
2022/06/30 01:32:38;;;;;;;9.88;5.72;;;;;;;;;;5033871;28;20030;-78
2022/06/30 01:35:04;;;;;;;8.15;5.43;;;;;;;;;;5033537;28;20030;-78
2022/06/30 01:37:45;;;;;;;6.88;5.15;;;;;;;;;;5033532;28;20028;-78
2022/06/30 01:40:12;;;;;;;6.93;5.40;;;;;;;;;;5033438;28;20032;-77
2022/06/30 01:42:38;;;;;;;4.78;4.30;;;;;;;;;;5033406;28;20029;-78
2022/06/30 01:45:05;;;;;;;7.53;5.20;;;;;;;;;;5033250;28;20028;-78
2022/06/30 01:47:31;;;;;;;5.82;4.53;;;;;;;;;;5033447;28;20037;-78
2022/06/30 01:49:57;;;;;;;6.65;5.05;;;;;;;;;;5033178;28;20056;-78
2022/06/30 01:52:23;;;;;;;5.85;4.60;;;;;;;;;;5033260;28;20108;-78
2022/06/30 01:54:49;;;;;;;5.85;4.68;;;;;;;;;;5033234;28;20036;-78
2022/06/30 01:57:15;;;;;;;7.03;5.43;;;;;;;;;;5033137;28;20028;-77
2022/06/30 01:59:41;;;;;;;6.82;4.60;;;;;;;;;;5033176;28;20076;-78
2022/06/30 02:02:07;;;;;;;6.93;4.70;;;;;;;;;;5033448;28;20420;-77
2022/06/30 02:05:06;;;;;;;5.80;4.70;;;;;;;;;;5032972;28;20045;-76
2022/06/30 02:07:26;;;;;;;5.78;4.68;;;;;;;;;;5029929;28;20087;-76
2022/06/30 02:09:52;;;;;;;7.35;4.68;;;;;;;;;;5033290;28;20376;-75
2022/06/30 02:15:04;;;;;;;6.22;5.40;;;;;;;;;;5033268;28;20079;-72
2022/06/30 02:17:30;;;;;;;5.32;4.82;;;;;;;;;;5033118;28;20022;-78
2022/06/30 02:19:56;;;;;;;6.90;4.80;;;;;;;;;;5032896;28;20064;-77
2022/06/30 02:22:22;;;;;;;6.43;4.18;;;;;;;;;;5033152;28;20124;-78
2022/06/30 02:24:48;;;;;;;5.95;4.78;;;640.40;2278.40;;;;;;5032909;28;20029;-78
2022/06/30 02:27:13;;;;;;;5.63;4.82;;;640.30;2278.40;;;;;;5032879;28;20032;-78
2022/06/30 02:29:39;;;;;;;5.65;4.68;;;640.30;2278.40;;;;;;5034104;28;20045;-78
2022/06/30 02:32:05;;;;;;;7.53;5.57;;;;;;;;;;5037183;28;20026;-78
2022/06/30 02:34:31;;;;;;;6.35;4.85;;;640.40;2278.40;;;;;;5036815;28;20076;-78
2022/06/30 02:36:57;;;;;;;5.75;4.65;;;640.20;2278.40;;;;;;5036732;28;20057;-76
2022/06/30 02:39:23;;;;;;;6.68;4.85;;;640.20;2304.00;;;;;;5036855;28;20029;-76
2022/06/30 02:41:49;;;;;;;7.53;4.88;;;640.40;2278.40;;;;;;5036736;28;20028;-67
2022/06/30 02:44:15;;;;;;;7.43;5.15;;;640.30;2278.40;;;;;;5036681;28;20026;-67
2022/06/30 02:46:41;;;;;;;7.38;5.38;;;640.30;2278.40;;;;;;5036719;28;20027;-67
2022/06/30 02:49:07;;;;;;;8.82;5.10;;;640.30;2278.40;;;;;;5036532;28;20030;-68
2022/06/30 02:51:32;;;;;;;9.38;5.18;;;640.30;2278.40;;;;;;5036485;28;20018;-68
2022/06/30 02:53:58;;;;;;;13.40;5.78;;;640.20;2304.00;;;;;;5036455;28;20032;-68
2022/06/30 02:56:24;;;;;;;11.13;5.35;;;640.20;2304.00;;;;;;5036471;28;20104;-67
2022/06/30 02:58:50;;;;;;;6.03;4.82;;;640.30;2278.40;;;;;;5036340;28;20033;-68
2022/06/30 03:01:16;;;;;;;7.22;5.13;;;640.30;2304.00;;;;;;5036243;28;20037;-68
2022/06/30 03:03:41;;;;;;;6.85;4.85;;;640.30;2278.40;;;;;;5036382;28;20037;-69
2022/06/30 03:06:07;;;;;;;15.07;5.28;;;640.30;2278.40;;;;;;5036092;28;20488;-67
2022/06/30 03:08:33;;;;;;;7.72;5.10;;;640.30;2278.40;;;;;;5036377;28;20120;-67
2022/06/30 03:10:59;;;;;;;6.25;4.97;;;640.20;2304.00;;;;;;5036185;28;20041;-68
2022/06/30 03:13:25;;;;;;;8.52;5.03;;;640.20;2304.00;;;;;;5036051;28;20021;-68
2022/06/30 03:15:51;;;;;;;8.43;4.53;;;640.20;2304.00;;;;;;5036299;28;20365;-67
2022/06/30 03:18:17;;;;;;;8.52;4.50;;;640.20;2304.00;;;;;;5036047;28;20025;-68
2022/06/30 03:20:43;;;;;;;7.20;4.97;;;640.20;2304.00;;;;;;5035918;28;20494;-68
2022/06/30 03:23:09;;;;;;;5.65;4.80;;;640.20;2304.00;;;;;;5035964;28;20025;-68
2022/06/30 03:25:34;;;;;;;5.70;4.70;;;640.20;2304.00;;;;;;5035910;28;20025;-68
2022/06/30 03:28:02;;;;;;;5.95;4.72;;;640.20;2304.00;;;;;;5035651;28;20024;-68
2022/06/30 03:30:28;;;;;;;7.15;5.30;;;640.20;2304.00;;;;;;5017989;28;20174;-75
2022/06/30 03:32:53;;;;;;;6.22;4.80;;;640.10;2304.00;;;;;;5035822;28;20056;-78
2022/06/30 03:35:19;;;;;;;7.30;4.95;;;640.20;2304.00;;;;;;5035788;28;20132;-78
2022/06/30 03:37:46;;;;;;;7.43;4.82;;;640.10;2304.00;;;;;;5035823;28;20025;-78
2022/06/30 03:40:12;;;;;;;7.05;5.00;;;640.10;2304.00;;;;;;5035396;28;20472;-78
2022/06/30 03:42:38;;;;;;;6.60;4.88;;;640.20;2304.00;;;;;;5035828;28;20460;-78
2022/06/30 03:45:05;;;;;;;9.57;5.50;;;640.20;2304.00;;;;;;5035527;28;20024;-78
2022/06/30 03:47:30;;;;;;;8.80;4.80;;;640.20;2304.00;;;;;;5035544;28;20373;-78
2022/06/30 03:49:56;;;;;;;11.02;6.22;;;640.20;2304.00;;;;;;5035450;28;20056;-76
2022/06/30 03:52:22;;;;;;;6.63;5.10;;;640.20;2304.00;;;;;;5017813;28;20039;-76
2022/06/30 03:54:47;;;;;;;6.85;5.70;;;640.20;2304.00;;;;;;5035372;28;20076;-77
2022/06/30 03:57:13;;;;;;;8.13;5.38;;;640.20;2304.00;;;;;;5035258;28;20022;-76
2022/06/30 03:59:39;;;;;;;7.68;5.40;;;640.20;2304.00;;;;;;5017473;28;20033;-76
2022/06/30 04:02:06;;;;;;;9.88;5.40;;;640.20;2304.00;;;;;;5035491;28;20033;-76
2022/06/30 04:04:32;;;;;;;8.68;5.72;;;640.40;2304.00;;;;;;5035087;28;20049;-75
2022/06/30 04:06:58;;;;;;;7.20;5.22;;;640.40;2304.00;;;;;;5035131;28;20029;-76
2022/06/30 04:09:24;;;;;;;6.30;5.05;;;640.20;2304.00;;;;;;5034932;28;20036;-76
2022/06/30 04:11:50;;;;;;;10.32;5.35;;;640.40;2304.00;;;;;;5035251;28;20026;-76
2022/06/30 04:14:15;;;;;;;10.93;5.20;;;640.40;2304.00;;;;;;5035168;28;20112;-75
2022/06/30 04:16:41;;;;;;;8.07;5.40;;;640.40;2304.00;;;;;;5034963;28;20492;-76
2022/06/30 04:19:07;;;;;;;8.57;5.20;;;640.40;2278.40;;;;;;5034920;28;20034;-76
2022/06/30 04:21:32;;;;;;;7.90;5.60;;;640.40;2278.40;;;;;;5034838;28;20032;-77
2022/06/30 04:23:58;;;;;;;8.07;5.50;;;640.50;2278.40;;;;;;5034846;28;20438;-78
2022/06/30 04:26:24;;;;;;;8.05;5.82;;;640.50;2278.40;;;;;;5035229;28;20030;-76
2022/06/30 04:28:50;;;;;;;7.90;5.93;;;640.50;2278.40;;;;;;5034551;28;20037;-78
2022/06/30 04:33:59;;;;;;;8.75;5.40;;;640.50;2278.40;;;;;;5034906;28;20446;-78
2022/06/30 04:36:25;;;;;;;10.52;5.80;;;640.50;2278.40;;;;;;5034513;28;20022;-77
2022/06/30 04:38:51;;;;;;;6.63;5.70;;;640.60;2278.40;;;;;;5034564;28;20395;-78
2022/06/30 04:41:25;;;;;;;7.53;6.50;;;640.60;2278.40;;;;;;5034362;28;20031;-77
2022/06/30 04:43:52;;;;;;;10.88;7.22;;;640.60;2278.40;;;;;;5034359;28;20025;-77
2022/06/30 04:46:17;;;;;;;9.15;6.40;;;640.70;2278.40;;;;;;5034528;28;20057;-75
2022/06/30 04:48:43;;;;;;;10.85;6.80;;;640.70;2278.40;;;;;;5034277;28;20060;-78
2022/06/30 04:51:09;;;;;;;15.20;12.27;;;;;;;;;;5034544;28;20540;-79
2022/06/30 04:53:35;;;;;;;10.70;6.35;;;;;;;;;;5033447;28;20434;-78
2022/06/30 04:56:01;;;;;;;8.80;5.70;;;;;;;;;;5034217;28;20064;-75
2022/06/30 04:58:27;;;;;;;8.50;5.70;;;;;;;;;;5034287;28;20024;-76
2022/06/30 05:00:54;;;;;;;11.18;6.05;;;;;;;;;;5033942;28;20029;-78
2022/06/30 05:03:20;;;;;;;7.65;5.82;;;;;;;;;;5033967;28;20036;-77
2022/06/30 05:05:46;;;;;;;13.70;5.60;;;;;;;;;;5033876;28;20127;-71
2022/06/30 05:08:12;;;;;;;7.10;6.05;;;;;;;;;;5034069;28;20028;-78
2022/06/30 05:10:38;;;;;;;7.70;5.32;;;;;;;;;;5034041;28;20025;-75
2022/06/30 05:13:07;;;;;;;8.57;5.53;;;;;;;;;;5034118;28;20108;-78
2022/06/30 05:15:33;;;;;;;8.77;5.13;;;;;;;;;;5033779;28;20137;-76
2022/06/30 05:17:59;;;;;;;9.25;5.25;;;;;;;;;;5033797;28;20104;-74
2022/06/30 05:20:26;;;;;;;9.13;5.78;;;;;;;;;;5033666;28;20032;-76
2022/06/30 05:22:52;;;;;;;11.27;5.63;;;;;;;;;;5033821;28;20029;-78
2022/06/30 05:28:03;;;;;;;8.53;4.90;;;;;;;;;;5033857;28;20051;-78
2022/06/30 05:30:29;;;;;;;7.22;5.45;;;;;;;;;;5033566;28;20386;-79
2022/06/30 05:32:55;;;;;;;10.98;6.47;;;;;;;;;;5033921;28;20030;-78
2022/06/30 05:35:21;;;;;;;12.65;6.78;;;;;;;;;;5033391;28;20030;-78
2022/06/30 05:37:48;;;;;;;11.30;6.13;;;;;;;;;;5033350;28;20100;-78
2022/06/30 05:40:14;;;;;;;12.20;6.40;;;;;;;;;;5033307;28;20108;-78
2022/06/30 05:42:40;;;;;;;9.90;8.13;;;;;;;;;;5033528;28;20026;-78
2022/06/30 05:45:06;;;;;;;8.15;6.20;;;;;;;;;;5033202;28;20026;-78
2022/06/30 05:47:32;;;;;;;8.45;5.88;;;;;;;;;;5033229;28;20507;-76
2022/06/30 05:49:59;;;;;;;17.55;6.70;;;;;;;;;;5032976;28;20037;-76
2022/06/30 05:52:25;;;;;;;10.60;5.30;;;;;;;;;;5033147;28;20026;-78
2022/06/30 05:54:51;;;;;;;10.18;5.45;;;;;;;;;;5033325;28;20030;-78
2022/06/30 05:57:17;;;;;;;11.13;6.63;;;;;;;;;;5033084;28;20152;-79
2022/06/30 05:59:43;;;;;;;14.93;6.38;;;;;;;;;;5032930;28;20105;-78
2022/06/30 06:02:09;;;;;;;10.05;6.47;;;;;;;;;;5033051;28;20025;-74
2022/06/30 06:04:35;;;;;;;11.57;6.55;;;;;;;;;;5032828;28;20523;-78
2022/06/30 06:07:03;;;;;;;12.32;6.57;;;;;;;;;;5033063;28;20100;-78
2022/06/30 06:09:30;;;;;;;7.13;5.88;;;;;;;;;;5032807;28;20495;-71
2022/06/30 06:11:56;;;;;;;7.05;5.18;;;;;;;;;;5032974;28;20487;-78
2022/06/30 06:14:22;;;;;;;7.13;5.93;;;;;;;;;;5032775;28;20034;-78
2022/06/30 06:16:48;;;;;;;7.32;5.93;;;;;;;;;;5033007;28;20021;-78
2022/06/30 06:19:15;;;;;;;8.93;5.78;;;;;;;;;;5032747;28;20026;-79
2022/06/30 06:21:41;;;;;;;6.90;5.38;;;;;;;;;;5032859;28;20017;-78
2022/06/30 06:24:07;;;;;;;7.65;5.50;;;;;;;;;;5032904;28;20041;-78
2022/06/30 06:26:33;;;;;;;12.77;5.82;;;;;;;;;;5032820;28;20026;-78
2022/06/30 06:29:06;;;;;;;6.85;5.45;;;;;;;;;;5032729;28;20048;-78
2022/06/30 06:31:39;;;;;;;8.25;6.55;;;;;;;;;;5015016;28;20084;-78
2022/06/30 06:34:06;;;;;;;7.65;6.20;;;;;;;;;;5032778;28;20033;-78
2022/06/30 06:36:32;;;;;;;8.32;6.18;;;;;;;;;;5032683;28;20017;-78
2022/06/30 06:38:58;;;;;;;15.20;6.25;;;;;;;;;;5033027;28;20096;-72
2022/06/30 06:41:25;;;;;;;7.15;5.22;;;;;;;;;;5032656;28;20484;-75
2022/06/30 06:43:51;;;;;;;7.70;5.78;;;;;;;;;;5032722;28;20404;-78
2022/06/30 06:46:18;;;;;;;10.45;6.15;;;;;;;;;;5032518;28;20395;-78
2022/06/30 06:48:44;;;;;;;7.93;5.72;;;;;;;;;;5032718;28;20025;-79
2022/06/30 06:51:11;;;;;;;12.48;5.70;;;;;;;;;;5032685;28;20131;-78
2022/06/30 06:53:38;;;;;;;9.68;6.60;;;;;;;;;;5032630;28;20018;-78
2022/06/30 06:56:04;;;;;;;18.00;7.45;;;;;;;;;;5032543;28;20492;-77
2022/06/30 06:58:31;;;;;;;11.00;6.45;;;;;;;;;;5032710;28;20033;-78
2022/06/30 07:00:58;;;;;;;10.63;6.28;;;;;;;;;;5032272;28;20109;-78
2022/06/30 07:03:24;;;;;;;13.25;6.68;;;;;;;;;;5032322;28;20069;-79
2022/06/30 07:05:50;;;;;;;8.43;6.35;;;;;;;;;;5032307;28;20133;-78
2022/06/30 07:08:16;;;;;;;11.25;6.43;;;;;;;;;;5032253;28;20036;-78
2022/06/30 07:10:43;;;;;;;10.07;6.57;;;;;;;;;;5032520;28;20032;-77
2022/06/30 07:13:09;;;;;;;13.05;6.82;;;;;;;;;;5032675;28;20032;-78
2022/06/30 07:15:35;;;;;;;14.75;9.15;;;;;;;;;;5033429;28;20112;-78
2022/06/30 07:18:01;;;;;;;14.25;8.27;;;;;;;;;;5035984;28;20026;-78
2022/06/30 07:20:27;;;;;;;11.73;7.05;;;;;;;;;;5035825;28;20439;-78
2022/06/30 07:22:54;;;;;;;10.02;6.60;;;;;;;;;;5035967;28;20022;-78
2022/06/30 07:25:20;;;;;;;13.73;9.07;;;;;;;;;;5035907;28;20017;-78
2022/06/30 07:27:46;;;;;;;15.77;7.35;;;;;;;;;;5035694;28;20032;-77
2022/06/30 07:30:12;;;;;;;12.25;8.63;;;;;;;;;;5035617;28;20048;-77
2022/06/30 07:32:38;;;;;;;11.38;8.38;;;;;;;;;;5036096;28;20025;-75
2022/06/30 07:35:05;;;;;;;14.02;8.02;;;;;;;;;;5035860;28;20034;-77
2022/06/30 07:37:31;;;;;;;15.18;7.60;;;;;;;;;;5035812;28;20472;-78
2022/06/30 07:39:57;;;;;;;14.30;8.15;;;;;;;;;;5035553;28;20572;-78
2022/06/30 07:42:23;;;;;;;12.23;7.85;;;;;;;;;;5035573;28;20022;-77
2022/06/30 07:44:49;;;;;;;15.98;9.40;;;;;;;;;;5035427;28;20052;-78
2022/06/30 07:47:15;;;;;;;12.18;7.90;;;;;;;;;;5035381;28;20049;-75
2022/06/30 07:49:41;;;;;;;15.30;8.02;;;;;;;;;;5035181;28;20033;-78
2022/06/30 07:52:08;;;;;;;15.38;8.55;;;;;;;;;;5035437;28;20022;-78
2022/06/30 07:54:34;;;;;;;9.02;6.88;;;;;;;;;;5035325;28;20037;-76
2022/06/30 07:57:00;;;;;;;15.00;8.57;;;;;;;;;;5035272;28;20053;-78
2022/06/30 07:59:26;;;;;;;17.13;10.90;;;;;;;;;;5035370;28;20026;-78
2022/06/30 08:01:52;;;;;;;15.93;8.30;;;;;;;;;;5035417;28;20033;-77
2022/06/30 08:04:18;;;;;;;11.55;7.70;;;;;;;;;;5034819;28;20022;-76
2022/06/30 08:06:44;;;;;;;16.05;8.85;;;;;;;;;;5035129;28;20026;-78
2022/06/30 08:09:10;;;;;;;12.88;7.88;;;;;;;;;;5034992;28;20480;-78
2022/06/30 08:11:38;;;;;;;13.93;8.15;;;;;;;;;;5034989;28;20067;-78
2022/06/30 08:14:04;;;;;;;13.00;8.02;;;;;;;;;;5034907;28;20500;-74
2022/06/30 08:16:30;;;;;;;14.45;8.50;;;;;;;;;;5034919;28;20475;-77
2022/06/30 08:18:56;;;;;;;13.38;8.73;;;;;;;;;;5034861;28;20028;-78
2022/06/30 08:21:22;;;;;;;16.13;8.02;;;;;;;;;;5034818;28;20025;-75
2022/06/30 08:23:48;;;;;;;14.95;8.48;;;;;;;;;;5034735;28;20025;-78
2022/06/30 08:26:14;;;;;;;11.70;8.43;;;;;;;;;;5034656;28;20380;-78
2022/06/30 08:28:40;;;;;;;12.00;7.95;;;;;;;;;;5033777;28;20029;-77
2022/06/30 08:31:07;;;;;;;17.08;8.57;;;;;;;;;;5034676;28;20053;-75
2022/06/30 08:33:33;;;;;;;12.32;8.27;;;;;;;;;;5034641;28;20055;-72
2022/06/30 08:35:59;;;;;;;14.32;8.20;;;;;;;;;;5034551;28;20026;-75
2022/06/30 08:38:25;;;;;;;11.60;7.40;;;;;;;;;;5034445;28;20384;-77
2022/06/30 08:43:36;;;;;;;14.00;7.70;;;;;;;;;;5034836;28;20083;-78
2022/06/30 08:46:03;;;;;;;14.15;8.38;;;;;;;;;;5034409;28;20083;-78
2022/06/30 08:48:29;;;;;;;12.02;8.30;;;;;;;;;;5034330;28;20056;-78
2022/06/30 08:50:59;;;;;;;27.10;9.57;;;;;;;;;;5034222;28;20040;-78
2022/06/30 08:53:25;;;;;;;13.30;8.02;;;;;;;;;;5034230;28;20086;-78
2022/06/30 08:55:52;;;;;;;12.23;8.18;;;;;;;;;;5034232;28;20030;-78
2022/06/30 08:58:19;;;;;;;13.73;8.05;;;;;;;;;;5034223;28;20129;-77
2022/06/30 09:00:45;;;;;;;17.05;8.90;;;;;;;;;;5034014;28;20026;-78
2022/06/30 09:03:11;;;;;;;25.00;11.25;;;;;;;;;;5034583;28;20025;-77
2022/06/30 09:05:39;;;;;;;10.30;7.70;;;;;;;;;;5034007;28;20132;-75
2022/06/30 09:08:05;;;;;;;22.88;10.32;;;;;;;;;;5034127;28;20392;-74
2022/06/30 09:10:31;;;;;;;13.40;8.45;;;;;;;;;;5033951;28;20033;-76
2022/06/30 09:13:06;;;;;;;14.27;7.55;;;;;;;;;;5034075;28;20025;-75
2022/06/30 09:15:38;;;;;;;13.07;7.10;;;;;;;;;;5033792;28;20040;-75
2022/06/30 09:18:04;;;;;;;15.30;8.45;;;;;;;;;;5033991;28;20018;-76
2022/06/30 09:20:37;;;;;;;16.77;8.88;;;;;;;;;;5033819;28;20017;-78
2022/06/30 09:23:19;;;;;;;12.02;7.97;;;;;;;;;;5033930;28;20036;-75
2022/06/30 09:25:49;;;;;;;15.50;7.40;;;;;;;;;;5033976;28;20467;-76
2022/06/30 09:28:15;;;;;;;18.03;9.13;;;;;;;;;;5033721;28;20076;-77
2022/06/30 09:30:42;;;;;;;15.15;7.57;;;;;;;;;;5033805;28;20052;-77
2022/06/30 09:33:09;;;;;;;14.63;8.07;;;;;;;;;;5034047;28;20104;-77
2022/06/30 09:35:38;;;;;;;11.88;8.40;;;;;;;;;;5033468;28;20550;-76
2022/06/30 09:38:14;;;;;;;23.42;8.10;;;;;;;;;;5033343;28;20018;-76
2022/06/30 09:41:04;;;;;;;14.10;7.40;;;;;;;;;;5033447;28;20021;-76
2022/06/30 09:43:37;;;;;;;20.33;8.38;;;;;;;;;;5033787;28;20031;-76
2022/06/30 09:46:04;;;;;;;12.63;7.70;;;;;;;;;;5033257;28;20109;-75
2022/06/30 09:48:32;;;;;;;10.00;6.85;;;;;;;;;;5033250;28;20022;-77
2022/06/30 09:51:02;;;;;;;15.10;7.32;;;;;;;;;;5033217;28;20079;-76
2022/06/30 09:53:28;;;;;;;14.63;8.02;;;;;;;;;;5033208;28;20022;-80
2022/06/30 09:55:55;;;;;;;15.90;7.70;;;;;;;;;;5033270;28;20407;-79
2022/06/30 09:58:27;;;;;;;10.95;6.95;;;;;;;;;;5033204;28;20018;-78
2022/06/30 10:00:53;;;;;;;12.18;7.05;;;;;;;;;;5033306;28;20051;-73
2022/06/30 10:03:19;;;;;;;11.73;7.45;;;;;;;;;;5033048;28;20021;-79
2022/06/30 10:05:47;;;;;;;12.70;7.72;;;;;;;;;;5032899;28;20415;-76
2022/06/30 10:08:14;;;;;;;12.27;6.68;;;;;;;;;;5033006;28;20056;-75
2022/06/30 10:10:40;;;;;;;15.95;7.30;;;;;;;;;;5033356;28;20025;-76
2022/06/30 10:13:08;;;;;;;10.60;6.65;;;;;;;;;;5033095;28;20025;-76
2022/06/30 10:15:35;;;;;;;10.02;7.40;;;;;;;;;;5033066;28;20108;-76
2022/06/30 10:18:02;;;;;;;10.38;6.82;;;;;;;;;;5033343;28;20022;-77
2022/06/30 10:20:30;;;;;;;12.95;6.93;;;;;;;;;;5032960;28;20427;-76
2022/06/30 10:22:56;;;;;;;9.88;6.78;;;;;;;;;;5032982;28;20032;-76
2022/06/30 10:25:23;;;;;;;11.38;6.85;;;;;;;;;;5032799;28;20021;-76
2022/06/30 10:27:49;;;;;;;11.65;7.65;;;;;;;;;;5032887;28;20030;-79
2022/06/30 10:30:16;;;;;;;12.73;7.13;;;;;;;;;;5032982;28;20033;-73
2022/06/30 10:32:45;;;;;;;12.35;6.65;;;;;;;;;;5032882;28;20053;-78
2022/06/30 10:35:23;;;;;;;13.20;7.07;;;;;;;;;;5032838;28;20535;-78
2022/06/30 10:37:57;;;;;;;9.88;6.90;;;;;;;;;;5033110;28;20057;-77
2022/06/30 10:40:23;;;;;;;21.25;8.10;;;;;;;;;;5032811;28;20022;-78
2022/06/30 10:42:50;;;;;;;43.25;12.25;;;;;;;;;;5032678;28;20026;-78
2022/06/30 10:45:31;;;;;;;11.25;6.35;;;;;;;;;;5032638;28;20105;-78
2022/06/30 10:48:07;;;;;;;15.30;6.63;;;;;;;;;;5032509;28;20052;-79
2022/06/30 10:50:35;;;;;;;14.40;7.32;;;;;;;;;;5033618;28;20037;-78
2022/06/30 10:53:02;;;;;;;15.30;7.60;;;;;;;;;;5036628;28;20480;-78
2022/06/30 10:55:28;;;;;;;16.52;7.03;;;;;;;;;;5018505;28;20029;-79
2022/06/30 10:58:01;;;;;;;11.55;7.40;;;;;;;;;;5036489;28;20035;-78
2022/06/30 11:00:42;;;;;;;17.48;7.78;;;;;;;;;;5036538;28;20071;-76
2022/06/30 11:03:08;;;;;;;30.83;8.70;;;;;;;;;;5036209;28;20057;-76
2022/06/30 11:05:48;;;;;;;14.70;8.07;;;;;;;;;;5036113;28;20057;-76
2022/06/30 11:08:57;;;;;;;11.80;6.53;;;;;;;;;;5036299;28;20025;-76
2022/06/30 11:11:28;;;;;;;20.17;7.35;;;;;;;;;;5014717;28;20484;-76
2022/06/30 11:14:03;;;;;;;16.75;7.03;;;;;;;;;;5036356;28;20021;-78
2022/06/30 11:16:33;;;;;;;11.77;7.30;;;;;;;;;;5036258;28;20545;-78
2022/06/30 11:19:00;;;;;;;16.27;7.50;;;;;;;;;;5036217;28;20026;-76
2022/06/30 11:21:29;;;;;;;14.80;6.20;;;;;;;;;;5035913;28;20037;-74
2022/06/30 11:23:57;;;;;;;11.88;6.97;;;;;;;;;;5036002;28;20013;-76
2022/06/30 11:29:17;;;;;;;13.48;7.32;;;;;;;;;;5036028;28;20152;-76
2022/06/30 11:31:43;;;;;;;11.93;7.35;;;;;;;;;;5035850;28;20068;-75
2022/06/30 11:34:09;;;;;;;15.32;6.28;;;;;;;;;;5035975;28;20025;-79
2022/06/30 11:36:37;;;;;;;14.57;6.72;;;;;;;;;;5036042;28;20096;-79
2022/06/30 11:39:07;;;;;;;13.02;6.25;;;;;;;;;;5018416;28;20037;-78
2022/06/30 11:44:20;;;;;;;13.65;6.90;;;;;;;;;;5035941;28;20041;-78
2022/06/30 11:46:50;;;;;;;13.45;7.50;;;;;;;;;;5035859;28;20028;-76
2022/06/30 11:49:16;;;;;;;10.35;6.45;;;;;;;;;;5035584;28;20065;-79
2022/06/30 11:51:43;;;;;;;16.52;7.18;;;;;;;;;;5035625;28;20427;-78
2022/06/30 11:54:09;;;;;;;12.10;6.82;;;;;;;;;;5035572;28;20021;-78
2022/06/30 11:56:46;;;;;;;23.60;8.07;;;;;;;;;;5035421;28;20021;-77
2022/06/30 11:59:12;;;;;;;10.02;6.32;;;;;;;;;;5035485;28;20025;-76
2022/06/30 12:01:38;;;;;;;9.93;6.57;;;;;;;;;;5035235;28;20055;-78
2022/06/30 12:04:17;;;;;;;12.82;6.82;;;;;;;;;;5035459;28;20440;-79
2022/06/30 12:06:43;;;;;;;18.65;7.88;;;;;;;;;;5035298;28;20048;-76
2022/06/30 12:09:09;;;;;;;24.23;7.10;;;;;;;;;;5035639;28;20108;-78
2022/06/30 12:11:36;;;;;;;14.00;7.15;;;;;;;;;;5035403;28;20549;-76
2022/06/30 12:14:02;;;;;;;18.10;7.30;;;;;;;;;;5035213;28;20075;-78
2022/06/30 12:16:28;;;;;;;19.40;7.63;;;;;;;;;;5034936;28;20026;-76
2022/06/30 12:18:55;;;;;;;11.27;6.80;;;;;;;;;;5035067;28;20030;-73
2022/06/30 12:21:21;;;;;;;13.82;7.70;;;;;;;;;;5017152;28;20021;-75
2022/06/30 12:23:48;;;;;;;16.10;6.85;;;;;;;;;;5034974;28;20087;-76
2022/06/30 12:26:15;;;;;;;14.90;6.72;;;;;;;;;;5034903;28;20388;-76
2022/06/30 12:28:48;;;;;;;18.33;7.95;;;;;;;;;;5034877;28;20052;-76
2022/06/30 12:31:27;;;;;;;13.63;6.93;;;;;;;;;;5034580;28;20057;-77
2022/06/30 12:33:54;;;;;;;12.43;6.60;;;;;;;;;;5034855;28;20448;-75
2022/06/30 12:36:21;;;;;;;18.63;7.10;;;;;;;;;;5034885;28;20160;-77
2022/06/30 12:38:47;;;;;;;14.32;6.82;;;;;;;;;;5034615;28;20032;-73
2022/06/30 12:41:14;;;;;;;15.93;7.95;;;;;;;;;;5034568;28;20021;-76
2022/06/30 12:43:44;;;;;;;17.95;7.95;;;;;;;;;;5034449;28;20384;-75
2022/06/30 12:46:11;;;;;;;15.25;7.43;;;;;;;;;;5034659;28;20088;-76
2022/06/30 12:48:53;;;;;;;11.77;8.07;;;;;;;;;;5034156;28;20056;-76
2022/06/30 12:51:28;;;;;;;14.70;6.90;;;;;;;;;;5034454;28;20030;-76
2022/06/30 12:54:01;;;;;;;17.00;7.20;;;;;;;;;;5034057;28;20482;-76
2022/06/30 12:56:27;;;;;;;16.27;8.00;;;;;;;;;;5034100;28;20545;-76
2022/06/30 12:58:53;;;;;;;13.07;7.32;;;;;;;;;;5034121;28;20033;-76
2022/06/30 13:01:22;;;;;;;15.77;7.47;;;;;;;;;;5034097;28;20014;-76
2022/06/30 13:04:08;;;;;;;15.35;7.75;;;;;;;;;;5034157;28;20033;-76
2022/06/30 13:06:36;;;;;;;15.93;7.93;;;;;;;;;;5034038;28;20423;-76
2022/06/30 13:09:05;;;;;;;17.92;8.00;;;;;;;;;;5033946;28;20076;-76
2022/06/30 13:11:31;;;;;;;14.07;6.72;;;;;;;;;;5033961;28;20488;-76
2022/06/30 13:13:58;;;;;;;14.63;6.80;;;;;;;;;;5033583;28;20022;-76
2022/06/30 13:16:24;;;;;;;11.65;7.18;;;;;;;;;;5033980;28;20025;-76
2022/06/30 13:18:51;;;;;;;17.90;8.10;;;;;;;;;;5033743;28;20018;-75
2022/06/30 13:21:17;;;;;;;14.73;7.35;;;;;;;;;;5033550;28;20017;-76
2022/06/30 13:23:44;;;;;;;17.10;7.03;;;;;;;;;;5033717;28;20021;-77
2022/06/30 13:26:10;;;;;;;29.63;8.70;;;;;;;;;;5033651;28;20032;-76
2022/06/30 13:28:37;;;;;;;15.82;8.15;;;;;;;;;;5033531;28;20021;-76
2022/06/30 13:31:03;;;;;;;14.15;7.45;;;;;;;;;;5033670;28;20445;-76
2022/06/30 13:33:31;;;;;;;11.73;7.25;;;;;;;;;;5033481;28;20030;-76
2022/06/30 13:35:58;;;;;;;19.83;7.95;;;;;;;;;;5033521;28;20111;-76
2022/06/30 13:38:24;;;;;;;16.38;7.47;;;;;;;;;;5033493;28;20084;-76
2022/06/30 13:40:50;;;;;;;14.13;7.28;;;;;;;;;;5033741;28;20379;-76
2022/06/30 13:43:16;;;;;;;12.40;7.25;;;;;;;;;;5033356;28;20032;-76
2022/06/30 13:45:42;;;;;;;15.40;7.03;;;;;;;;;;5033552;28;20433;-76
2022/06/30 13:48:08;;;;;;;23.60;8.43;;;;;;;;;;5033369;28;20049;-76
2022/06/30 13:50:34;;;;;;;14.98;7.82;;;;;;;;;;5033205;28;20451;-76
2022/06/30 13:53:00;;;;;;;12.00;7.22;;;;;;;;;;5033209;28;20484;-76
2022/06/30 13:55:27;;;;;;;14.52;7.10;;;;;;;;;;5033301;28;20025;-76
2022/06/30 13:57:53;;;;;;;14.55;7.60;;;;;;;;;;5033256;28;20025;-76
2022/06/30 14:00:19;;;;;;;15.38;7.43;;;;;;;;;;5033322;28;20384;-75
2022/06/30 14:02:45;;;;;;;12.20;6.78;;;;;;;;;;5033202;28;20415;-75
2022/06/30 14:05:11;;;;;;;13.80;6.88;;;;;;;;;;5033106;28;20104;-76
2022/06/30 14:07:37;;;;;;;12.65;7.40;;;;;;;;;;5033020;28;20021;-76
2022/06/30 14:10:04;;;;;;;21.10;7.78;;;;;;;;;;5033106;28;20041;-76
2022/06/30 14:12:30;;;;;;;11.32;6.88;;;;;;;;;;5033184;28;20037;-76
2022/06/30 14:14:56;;;;;;;14.88;6.60;;;;;;;;;;5033079;28;20025;-76
2022/06/30 14:17:22;;;;;;;15.93;7.03;;;;;;;;;;5032947;28;20021;-77
2022/06/30 14:19:48;;;;;;;14.25;7.43;;;;;;;;;;5033034;28;20029;-76
2022/06/30 14:22:15;;;;;;;16.75;6.75;;;;;;;;;;5033036;28;20022;-74
2022/06/30 14:24:41;;;;;;;14.68;7.50;;;;;;;;;;5033089;28;20132;-76
2022/06/30 14:27:07;;;;;;;12.88;6.78;;;;;;;;;;5036775;28;20024;-77